»·PEaware :: N123KT KPSP-KSBA

N123KT :: KPSP-KSBA

FLIGHT INFORMATION

Flight Status: Arrived
Operator: Privately registered:
United States
More flights under this callsign
Pilot: Anonymous 475 (475)
Aircraft: CESSNA 172 SKYHAWK
(C172)
More flights by this aircraft type
Origin: KPSP Palm Springs Intl
United States
Destination: KSBA Santa Barbara Mun
United States
More flights between these airports :: More routes between these airports
Route: +CATH1 PSP V388 PDZ V186 DEANO V27 KWANG
File this flight plan on PilotEdge
Remarks: TEC route PSPP16
Altitude:
(Current/Filed)
10,000ft
Speed:
(Current/Filed)
120kts
Departed: 04-May-19 01:03 PM
Arrived: 04-May-19 02:53 PM
Distance/Time
Traveled:
170nm/1:50
Distance/Time
To Go:
Arrived

Flight Plot

Page will automatically refresh every two minutes.


Map Options




Map Legend


Flown Route
Filed Route
Departure Airport
Arrival Airport
Navaid (VOR, NDB)
Fix

Horizontal Profiles

Position Reports

Time Latitude Longitude Heading Altitude Ground
Speed
04-May-19 12:40 33.827398 -116.501374 209 412ft 0kts
04-May-19 12:41 33.827398 -116.501375 209 412ft 0kts
04-May-19 12:42 33.827398 -116.501374 209 412ft 0kts
04-May-19 12:43 33.827398 -116.501374 209 412ft 0kts
04-May-19 12:44 33.827398 -116.501374 209 412ft 0kts
04-May-19 12:45 33.827398 -116.501375 209 412ft 0kts
04-May-19 12:46 33.827398 -116.501375 209 412ft 0kts
04-May-19 12:47 33.827398 -116.501375 209 412ft 0kts
04-May-19 12:48 33.827398 -116.501375 209 412ft 0kts
04-May-19 12:49 33.827398 -116.501374 209 412ft 0kts
04-May-19 12:50 33.827398 -116.501375 209 412ft 0kts
04-May-19 12:51 33.827398 -116.501374 209 412ft 0kts
04-May-19 12:52 33.827398 -116.501375 209 412ft 0kts
04-May-19 12:53 33.827398 -116.501375 209 412ft 0kts
04-May-19 12:54 33.827398 -116.501375 209 412ft 0kts
04-May-19 12:55 33.827398 -116.501375 209 412ft 0kts
04-May-19 12:56 33.827398 -116.501375 209 412ft 0kts
04-May-19 12:57 33.827398 -116.501375 209 412ft 0kts
04-May-19 12:58 33.827398 -116.501375 209 412ft 0kts
04-May-19 12:59 33.826818 -116.501288 141 412ft 12kts
04-May-19 13:00 33.824575 -116.499709 230 405ft 0kts
04-May-19 13:01 33.824575 -116.499709 230 405ft 0kts
04-May-19 13:02 33.832445 -116.507243 321 653ft 79kts
04-May-19 13:03 33.851201 -116.525514 319 1520ft 94kts
04-May-19 13:04 33.871567 -116.545372 320 2473ft 94kts
04-May-19 13:05 33.892073 -116.565364 320 3364ft 94kts
04-May-19 13:06 33.904008 -116.550041 106 4110ft 98kts
04-May-19 13:07 33.895466 -116.519147 106 4845ft 100kts
04-May-19 13:08 33.886347 -116.486859 106 5537ft 102kts
04-May-19 13:09 33.876973 -116.453700 107 6207ft 104kts
04-May-19 13:10 33.866428 -116.420901 116 6841ft 106kts
04-May-19 13:11 33.852905 -116.389057 117 7429ft 107kts
04-May-19 13:12 33.867811 -116.374191 306 7938ft 97kts
04-May-19 13:13 33.869974 -116.405857 268 8456ft 96kts
04-May-19 13:14 33.872055 -116.437995 283 8923ft 97kts
04-May-19 13:15 33.879790 -116.468689 283 9282ft 98kts
04-May-19 13:16 33.887837 -116.500325 283 9639ft 99kts
04-May-19 13:17 33.895916 -116.532107 283 9978ft 100kts
04-May-19 13:18 33.904750 -116.566899 283 10001ft 113kts
04-May-19 13:19 33.914099 -116.603651 283 10001ft 115kts
04-May-19 13:20 33.923522 -116.640871 283 10001ft 116kts
04-May-19 13:21 33.932970 -116.678237 283 10016ft 115kts
04-May-19 13:22 33.942408 -116.715620 283 10033ft 115kts
04-May-19 13:23 33.948238 -116.753324 265 10051ft 114kts
04-May-19 13:24 33.946855 -116.791825 265 10068ft 113kts
04-May-19 13:25 33.945545 -116.829991 265 10086ft 113kts
04-May-19 13:26 33.944240 -116.868124 265 10103ft 113kts
04-May-19 13:27 33.942920 -116.906300 265 10111ft 113kts
04-May-19 13:28 33.941912 -116.935288 266 10111ft 113kts
04-May-19 13:29 33.940629 -116.971900 266 10111ft 113kts
04-May-19 13:30 33.939238 -117.013117 267 9332ft 130kts
04-May-19 13:31 33.937682 -117.057531 268 8323ft 132kts
04-May-19 13:32 33.936077 -117.102210 269 7313ft 133kts
04-May-19 13:33 33.934628 -117.142444 269 6408ft 134kts
04-May-19 13:34 33.932834 -117.186094 268 6029ft 126kts
04-May-19 13:35 33.930872 -117.228380 268 6031ft 125kts
04-May-19 13:36 33.929029 -117.270520 268 6032ft 125kts
04-May-19 13:37 33.927190 -117.312667 268 6034ft 125kts
04-May-19 13:38 33.925336 -117.354922 268 6017ft 126kts
04-May-19 13:39 33.923614 -117.397125 268 6017ft 125kts
04-May-19 13:40 33.921938 -117.438959 268 6017ft 124kts
04-May-19 13:41 33.920187 -117.481117 268 6018ft 127kts
04-May-19 13:42 33.918359 -117.524336 268 6017ft 129kts
04-May-19 13:43 33.930566 -117.564861 293 6017ft 129kts
04-May-19 13:44 33.944667 -117.605314 293 6017ft 130kts
04-May-19 13:45 33.958777 -117.645362 293 6017ft 129kts
04-May-19 13:46 33.972874 -117.685361 292 6019ft 129kts
04-May-19 13:47 33.986969 -117.725407 292 6019ft 129kts
04-May-19 13:48 34.000898 -117.765084 292 6021ft 128kts
04-May-19 13:49 34.013335 -117.805452 289 6022ft 127kts
04-May-19 13:50 34.024890 -117.843095 289 6023ft 127kts
04-May-19 13:51 34.037201 -117.882994 289 6023ft 127kts
04-May-19 13:52 34.049610 -117.923228 289 6022ft 127kts
04-May-19 13:53 34.061979 -117.963387 290 6021ft 127kts
04-May-19 13:54 34.074379 -118.003699 290 6020ft 128kts
04-May-19 13:55 34.086875 -118.044366 290 6019ft 129kts
04-May-19 13:56 34.099116 -118.084254 291 6017ft 130kts
04-May-19 13:57 34.111566 -118.124880 291 6018ft 130kts
04-May-19 13:58 34.123458 -118.163727 288 6015ft 132kts
04-May-19 13:59 34.136054 -118.205015 287 6017ft 137kts
04-May-19 14:00 34.149239 -118.248213 286 6017ft 136kts
04-May-19 14:01 34.161913 -118.289816 286 6017ft 135kts
04-May-19 14:02 34.174969 -118.332720 286 6017ft 134kts
04-May-19 14:03 34.181339 -118.375897 272 6042ft 134kts
04-May-19 14:04 34.184972 -118.420287 272 6036ft 131kts
04-May-19 14:05 34.188494 -118.464325 272 6037ft 131kts
04-May-19 14:06 34.194804 -118.507828 271 6037ft 131kts
04-May-19 14:07 34.198767 -118.551646 274 6037ft 131kts
04-May-19 14:08 34.203795 -118.595226 275 6037ft 130kts
04-May-19 14:09 34.208896 -118.638413 275 6036ft 129kts
04-May-19 14:10 34.213908 -118.681010 275 6037ft 128kts
04-May-19 14:11 34.218903 -118.723604 275 6037ft 127kts
04-May-19 14:12 34.223838 -118.765824 276 6036ft 126kts
04-May-19 14:13 34.228744 -118.807913 277 6036ft 126kts
04-May-19 14:14 34.233616 -118.849823 276 6036ft 126kts
04-May-19 14:15 34.238494 -118.891918 276 6036ft 126kts
04-May-19 14:16 34.242947 -118.930449 276 6036ft 126kts
04-May-19 14:17 34.247796 -118.972545 276 6036ft 126kts
04-May-19 14:18 34.252618 -119.014527 276 6036ft 126kts
04-May-19 14:19 34.257448 -119.056712 276 6037ft 126kts
04-May-19 14:20 34.262266 -119.098926 276 6040ft 126kts
04-May-19 14:21 34.267082 -119.141267 275 6043ft 127kts
04-May-19 14:22 34.271897 -119.183733 275 6046ft 128kts
04-May-19 14:23 34.276924 -119.226280 275 5142ft 124kts
04-May-19 14:24 34.281665 -119.267692 275 4142ft 126kts
04-May-19 14:25 34.286392 -119.311142 274 4054ft 131kts
04-May-19 14:26 34.291186 -119.353397 275 4052ft 118kts
04-May-19 14:27 34.295515 -119.392390 274 4009ft 117kts
04-May-19 14:28 34.299396 -119.432167 272 4010ft 127kts
04-May-19 14:29 34.302276 -119.475988 270 4008ft 132kts
04-May-19 14:30 34.303882 -119.520427 268 4008ft 131kts
04-May-19 14:31 34.304285 -119.564672 267 4008ft 131kts
04-May-19 14:32 34.303759 -119.609001 265 4008ft 131kts
04-May-19 14:33 34.302615 -119.653454 264 4008ft 132kts
04-May-19 14:34 34.306678 -119.697517 281 4008ft 134kts
04-May-19 14:35 34.316287 -119.741206 281 4008ft 134kts
04-May-19 14:36 34.325926 -119.784926 281 4008ft 134kts
04-May-19 14:37 34.335556 -119.828570 281 4008ft 134kts
04-May-19 14:38 34.345038 -119.871770 281 4008ft 129kts
04-May-19 14:40 34.354236 -119.913820 281 4008ft 129kts
04-May-19 14:41 34.363454 -119.955925 281 4008ft 129kts
04-May-19 14:42 34.372688 -119.998074 281 4008ft 129kts
04-May-19 14:43 34.381930 -120.040090 281 4004ft 129kts
04-May-19 14:44 34.390288 -120.077945 281 4000ft 128kts
04-May-19 14:45 34.408585 -120.110806 2 3980ft 139kts
04-May-19 14:46 34.424283 -120.075246 96 3554ft 137kts
04-May-19 14:47 34.423722 -120.030483 91 2888ft 128kts
04-May-19 14:48 34.424612 -119.987736 90 2207ft 126kts
04-May-19 14:49 34.425533 -119.946301 90 1530ft 115kts
04-May-19 14:50 34.426344 -119.908890 90 928ft 109kts
04-May-19 14:51 34.427058 -119.876037 91 421ft 84kts
04-May-19 14:52 34.427583 -119.851627 93 23ft 57kts
04-May-19 14:53 34.428329 -119.845868 58 16ft 0kts
04-May-19 14:54 34.429307 -119.845177 20 15ft 14kts
04-May-19 14:55 34.429753 -119.845190 335 15ft 0kts
04-May-19 14:56 34.429753 -119.845190 335 15ft 0kts
04-May-19 14:57 34.429753 -119.845190 335 15ft 0kts

Navigation Log

Ident Type
Flight plan parsing failed, navigation log unavailable